CheckWX is a tool to help pilots better visualize weather data.  It is not intended as a substitute for an official pre-flight weather briefing.

23:00:19 UTC

LFPN TAF
Toussus-le-Noble Airport Airport
Toussus-le-Noble, France
TAF LFPN 101400Z 1015/1024 32010KT CAVOK

Jul-10@
15:00 UTC

Jul-10 @ 15:00 UTC

Jul-11@
00:00 UTC

Jul-11 @ 00:00 UTC

TAF LFPN 101400Z 1015/1024 32010KT CAVOK
Wind
  • 320° at 10 KTS
Conditions
No significant weather
Cloud Levels
  • No significant clouds